Time;durP1;ratioP1;P1;durP2;ratioP2;P2;SDS_P1;SDS_P2;PMS_P1;PMS_P2;Temp;Humidity;BMP_temperature;BMP_pressure;BME280_temperature;BME280_humidity;BME280_pressure;Samples;Min_cycle;Max_cycle;Signal;HPM_P1;HPM_P2
2022/08/18 00:02:00;;;;;;;9.43;4.38;;;;;;;25.43;71.93;100409.00;5032883;28;20258;-72
2022/08/18 00:04:30;;;;;;;4.20;3.65;;;;;;;25.38;71.38;100403.75;5033335;28;20054;-72
2022/08/18 00:07:13;;;;;;;6.10;4.25;;;;;;;25.39;71.68;100400.56;5032540;28;20061;-72
2022/08/18 00:09:42;;;;;;;3.97;3.38;;;;;;;25.42;70.84;100396.97;5033205;28;20520;-72
2022/08/18 00:12:17;;;;;;;9.02;3.92;;;;;;;25.43;71.85;100409.00;5032379;28;20076;-72
2022/08/18 00:14:46;;;;;;;4.22;3.78;;;;;;;25.42;71.08;100413.78;5033055;28;20077;-72
2022/08/18 00:17:15;;;;;;;4.65;4.07;;;;;;;25.49;71.00;100415.84;5033112;28;20499;-72
2022/08/18 00:19:43;;;;;;;7.22;4.28;;;;;;;25.47;70.88;100418.25;5032766;28;20049;-72
2022/08/18 00:22:18;;;;;;;6.20;3.67;;;;;;;25.47;71.40;100402.22;5032427;28;20488;-72
2022/08/18 00:24:56;;;;;;;7.35;4.00;;;;;;;25.44;71.27;100410.59;5032723;28;20042;-72
2022/08/18 00:27:29;;;;;;;4.43;3.70;;;;;;;25.43;71.17;100407.00;5032184;28;20049;-72
2022/08/18 00:30:02;;;;;;;8.63;4.00;;;;;;;25.45;70.98;100401.81;5032811;28;20044;-72
2022/08/18 00:32:40;;;;;;;5.32;3.80;;;;;;;25.50;71.04;100406.25;5032723;28;20503;-72
2022/08/18 00:35:12;;;;;;;5.93;4.07;;;;;;;25.56;70.59;100398.34;5019877;28;20053;-72
2022/08/18 00:37:41;;;;;;;4.72;3.63;;;;;;;25.47;70.77;100388.22;5032719;28;20049;-72
2022/08/18 00:40:13;;;;;;;8.15;4.18;;;;;;;25.36;71.36;100384.53;5033260;28;20407;-72
2022/08/18 00:42:45;;;;;;;5.55;3.63;;;;;;;25.31;71.83;100384.91;5032249;28;20046;-72
2022/08/18 00:45:16;;;;;;;5.47;4.22;;;;;;;25.19;72.31;100380.38;5018776;28;20486;-72
2022/08/18 00:47:45;;;;;;;5.85;4.22;;;;;;;25.21;72.50;100378.00;5032671;28;20049;-72
2022/08/18 00:50:17;;;;;;;5.85;3.50;;;;;;;25.38;71.96;100382.16;5032421;28;20052;-73
2022/08/18 00:52:52;;;;;;;7.05;4.38;;;;;;;25.32;71.73;100389.31;5032554;28;20053;-72
2022/08/18 00:55:21;;;;;;;5.78;4.05;;;;;;;25.12;73.15;100389.50;5032334;28;20065;-72
2022/08/18 00:57:54;;;;;;;4.60;3.55;;;;;;;25.17;72.21;100391.97;5032200;28;20042;-72
2022/08/18 01:00:22;;;;;;;10.10;4.57;;;;;;;25.13;72.51;100382.75;5032227;28;20049;-72
2022/08/18 01:02:54;;;;;;;7.50;4.43;;;;;;;25.00;73.24;100376.59;5032040;28;20506;-72
2022/08/18 01:05:39;;;;;;;6.78;4.03;;;;;;;25.07;72.82;100378.69;5031456;28;20033;-72
2022/08/18 01:08:13;;;;;;;6.10;3.97;;;;;;;25.11;72.81;100385.09;5031368;28;20045;-72
2022/08/18 01:10:42;;;;;;;7.28;4.40;;;;;;;25.17;72.56;100383.56;5032182;28;20052;-72
2022/08/18 01:13:10;;;;;;;8.68;5.03;;;;;;;25.15;73.60;100380.34;5032353;28;20488;-72
2022/08/18 01:15:38;;;;;;;8.85;4.88;;;;;;;25.21;73.02;100387.22;5031880;28;20041;-72
2022/08/18 01:24:03;;;;;;;10.50;5.63;;;;;;;25.36;71.81;100416.16;5031883;28;20061;-72
2022/08/18 01:26:36;;;;;;;9.07;6.05;;;;;;;25.26;72.60;100414.03;5031892;28;20057;-72
2022/08/18 01:29:12;;;;;;;10.48;6.18;;;;;;;25.37;72.03;100419.75;5032457;28;20060;-72
2022/08/18 01:31:54;;;;;;;13.57;5.68;;;;;;;25.30;72.28;100408.47;5032502;28;20045;-72
2022/08/18 01:34:27;;;;;;;8.85;6.32;;;;;;;25.10;72.85;100405.88;5029927;28;20072;-72
2022/08/18 01:36:56;;;;;;;9.35;6.30;;;;;;;25.10;73.36;100389.09;5032029;28;20050;-72
2022/08/18 01:39:24;;;;;;;10.80;6.72;;;;;;;24.91;74.05;100396.50;5031698;28;20045;-72
2022/08/18 01:42:15;;;;;;;11.27;5.78;;;;;;;24.95;74.29;100397.34;5032275;28;20065;-72
2022/08/18 01:44:46;;;;;;;7.43;5.60;;;;;;;25.00;73.59;100384.19;5032170;28;20053;-73
2022/08/18 01:47:17;;;;;;;8.48;5.70;;;;;;;25.02;73.44;100371.41;5032144;28;20064;-72
2022/08/18 01:49:45;;;;;;;7.03;5.15;;;;;;;24.92;74.53;100366.53;5035112;28;20054;-72
2022/08/18 01:52:20;;;;;;;7.57;5.43;;;;;;;25.04;73.84;100371.03;5035463;28;20076;-72
2022/08/18 01:54:50;;;;;;;7.43;5.68;;;;;;;25.06;73.28;100365.84;5034158;28;20056;-72
2022/08/18 01:57:20;;;;;;;11.55;5.75;;;;;;;24.85;74.07;100372.03;5035763;28;20050;-72
2022/08/18 01:59:48;;;;;;;6.43;4.85;;;;;;;24.75;74.88;100379.09;5035281;28;20045;-72
2022/08/18 02:02:23;;;;;;;9.95;5.15;;;;;;;24.70;74.50;100397.84;5035623;28;20056;-72
2022/08/18 02:04:55;;;;;;;9.23;5.78;;;;;;;24.92;73.77;100406.50;5035372;28;20045;-72
2022/08/18 02:07:23;;;;;;;9.00;4.97;;;;;;;25.09;73.25;100410.66;5035419;28;20057;-72
2022/08/18 02:10:06;;;;;;;9.70;5.93;;;;;;;25.13;73.34;100421.94;5035211;28;20050;-72
2022/08/18 02:12:40;;;;;;;6.82;4.90;;;;;;;25.20;72.78;100422.00;5036134;28;20045;-72
2022/08/18 02:15:08;;;;;;;7.38;4.82;;;;;;;25.25;72.35;100428.41;5035055;28;20045;-72
2022/08/18 02:17:43;;;;;;;7.05;4.88;;;;;;;25.29;71.62;100432.06;5035198;28;20452;-72
2022/08/18 02:20:14;;;;;;;11.30;4.95;;;;;;;25.36;70.64;100446.13;5035218;28;20060;-72
2022/08/18 02:22:44;;;;;;;9.55;4.35;;;;;;;25.47;70.39;100449.06;5034965;28;20046;-72
2022/08/18 02:25:13;;;;;;;7.03;4.68;;;;;;;25.56;70.55;100468.38;5035351;28;20784;-72
2022/08/18 02:27:41;;;;;;;12.95;5.57;;;;;;;25.58;70.58;100469.59;5034252;28;20510;-72
2022/08/18 02:30:13;;;;;;;8.15;6.00;;;;;;;25.67;71.34;100476.88;5034827;28;20041;-73
2022/08/18 02:32:41;;;;;;;8.82;5.80;;;;;;;25.67;70.34;100471.25;5034701;28;20427;-72
2022/08/18 02:35:10;;;;;;;12.63;6.85;;;;;;;25.90;70.32;100459.81;5034667;28;20048;-72
2022/08/18 02:37:40;;;;;;;8.88;6.55;;;;;;;25.84;70.81;100442.56;5034636;28;20049;-72
2022/08/18 02:40:21;;;;;;;12.27;5.85;;;;;;;25.84;71.04;100442.56;5034677;28;20064;-72
2022/08/18 02:42:51;;;;;;;10.95;6.00;;;;;;;25.96;72.20;100458.28;5034908;28;20057;-72
2022/08/18 02:45:21;;;;;;;8.35;5.53;;;;;;;25.68;74.05;100490.50;5035430;28;20400;-72
2022/08/18 02:47:54;;;;;;;12.07;6.85;;;;;;;25.46;75.51;100535.06;5034389;28;20399;-72
2022/08/18 02:50:22;;;;;;;9.13;6.72;;;;;;;24.99;77.33;100592.50;5021255;28;20041;-71
2022/08/18 02:52:50;;;;;;;12.07;6.53;;;;;;;24.58;81.39;100605.09;5035195;28;20049;-70
2022/08/18 02:55:18;;;;;;;14.15;7.20;;;;;;;24.39;83.22;100589.22;5034933;28;20045;-70
2022/08/18 02:57:47;;;;;;;12.13;6.72;;;;;;;23.70;90.25;100621.53;5034164;28;20049;-68
2022/08/18 03:00:18;;;;;;;17.20;7.82;;;;;;;23.38;92.86;100641.25;5033738;28;20042;-68
2022/08/18 03:02:50;;;;;;;10.38;7.05;;;;;;;23.30;90.54;100666.19;5034504;28;20049;-68
2022/08/18 03:05:19;;;;;;;7.60;3.95;;;;;;;23.00;90.20;100677.88;5033806;28;20492;-69
2022/08/18 03:07:49;;;;;;;12.77;5.47;;;;;;;22.97;92.72;100661.84;5034136;28;20429;-69
2022/08/18 03:10:17;;;;;;;10.23;6.00;;;;;;;22.79;97.41;100581.34;5034577;28;20061;-69
2022/08/18 03:13:00;;;;;;;12.23;6.88;;;;;;;22.65;99.03;100511.31;5033982;28;20050;-70
2022/08/18 03:15:28;;;;;;;7.43;4.38;;;;;;;22.52;93.48;100452.88;5033779;28;20698;-70
2022/08/18 03:17:56;;;;;;;6.75;3.67;;;;;;;22.34;94.76;100426.56;5034221;28;20057;-71
2022/08/18 03:20:25;;;;;;;6.68;3.53;;;;;;;22.18;95.99;100433.00;5033859;28;20395;-71
2022/08/18 03:22:59;;;;;;;5.13;3.40;;;;;;;22.10;96.67;100426.44;5033744;28;20058;-71
2022/08/18 03:25:47;;;;;;;4.00;3.47;;;;;;;21.95;97.15;100425.31;5030791;28;20397;-71
2022/08/18 03:28:16;;;;;;;5.70;4.00;;;;;;;21.83;97.06;100462.44;5013695;28;20050;-72
2022/08/18 03:30:44;;;;;;;5.38;3.28;;;;;;;21.90;96.79;100450.69;5013587;28;20065;-74
2022/08/18 03:33:12;;;;;;;4.18;2.65;;;;;;;21.86;95.15;100355.84;5013843;28;20058;-72
2022/08/18 03:35:40;;;;;;;3.92;2.78;;;;;;;21.93;95.06;100207.59;5024602;28;20068;-71
2022/08/18 03:38:08;;;;;;;2.53;2.10;;;;;;;21.79;93.01;100237.94;5032383;28;20054;-72
2022/08/18 03:40:37;;;;;;;5.30;2.28;;;;;;;21.86;92.13;100233.31;5033547;28;20132;-71
2022/08/18 03:43:06;;;;;;;3.83;2.67;;;;;;;21.92;95.16;100192.06;5033037;28;20488;-71
2022/08/18 03:45:54;;;;;;;5.35;2.40;;;;;;;22.13;94.61;100174.13;5033163;28;20058;-71
2022/08/18 03:48:21;;;;;;;4.25;2.22;;;;;;;21.91;92.83;100189.63;5032815;28;20496;-71
2022/08/18 03:50:49;;;;;;;2.60;1.73;;;;;;;22.03;91.99;100197.81;5033066;28;20045;-70
2022/08/18 03:53:20;;;;;;;1.60;1.50;;;;;;;22.18;91.37;100203.69;5032924;28;20401;-71
2022/08/18 03:55:48;;;;;;;2.30;1.75;;;;;;;22.26;89.35;100228.53;5033063;28;20125;-71
2022/08/18 03:58:16;;;;;;;1.30;1.10;;;;;;;22.44;88.13;100244.81;5032888;28;20056;-71
2022/08/18 04:00:44;;;;;;;1.38;1.27;;;;;;;22.59;86.10;100259.03;5021073;28;20053;-71
2022/08/18 04:03:12;;;;;;;3.38;1.80;;;;;;;22.65;86.18;100257.53;5032307;28;20037;-71
2022/08/18 04:05:40;;;;;;;3.42;1.92;;;;;;;22.73;85.48;100259.25;5032273;28;20496;-71
2022/08/18 04:08:08;;;;;;;1.42;1.33;;;;;;;22.62;87.07;100250.72;5032354;28;20049;-71
2022/08/18 04:10:36;;;;;;;3.78;1.23;;;;;;;22.74;85.00;100246.97;5032039;28;20484;-71
2022/08/18 04:13:04;;;;;;;4.07;1.38;;;;;;;22.75;84.73;100219.84;5032859;28;20053;-71
2022/08/18 04:15:32;;;;;;;2.08;1.13;;;;;;;22.80;83.29;100225.94;5031418;28;20049;-71
2022/08/18 04:18:07;;;;;;;2.47;1.15;;;;;;;22.70;82.13;100204.25;5033157;28;20045;-71
2022/08/18 04:20:35;;;;;;;0.80;0.80;;;;;;;22.82;82.29;100181.72;5032167;28;20041;-71
2022/08/18 04:23:04;;;;;;;1.65;1.00;;;;;;;22.89;82.04;100169.06;5032836;28;20045;-71
2022/08/18 04:25:32;;;;;;;1.33;0.82;;;;;;;22.86;82.24;100164.25;5031816;28;20056;-73
2022/08/18 04:28:02;;;;;;;1.83;0.90;;;;;;;22.77;81.72;100168.09;5029485;28;20061;-72
2022/08/18 04:30:30;;;;;;;1.17;0.73;;;;;;;22.82;81.19;100158.59;5032063;28;20046;-72
2022/08/18 04:33:00;;;;;;;3.40;0.98;;;;;;;22.75;81.95;100162.09;5030382;28;20395;-71
2022/08/18 04:35:29;;;;;;;1.40;0.85;;;;;;;22.87;80.88;100163.06;5032225;28;20042;-72
2022/08/18 04:37:57;;;;;;;1.15;0.90;;;;;;;22.93;79.82;100167.16;5031829;28;20583;-72
2022/08/18 04:40:25;;;;;;;2.20;0.95;;;;;;;23.25;80.16;100168.81;5031147;28;20555;-77
2022/08/18 04:42:54;;;;;;;0.85;0.80;;;;;;;23.60;80.62;100185.25;4998112;28;20491;-77
2022/08/18 04:45:22;;;;;;;1.27;0.88;;;;;;;24.06;78.43;100191.78;4995728;28;20604;-76
2022/08/18 04:47:50;;;;;;;1.25;1.08;;;;;;;24.22;77.61;100196.34;5008580;28;20053;-76
2022/08/18 04:50:19;;;;;;;2.03;0.70;;;;;;;24.06;77.94;100213.31;5032459;28;20046;-77
2022/08/18 04:55:33;;;;;;;0.73;0.73;;;;;;;24.63;75.21;100269.06;5020018;28;20057;-76
2022/08/18 04:58:01;;;;;;;2.40;1.70;;;;;;;24.19;74.25;100269.81;5030966;28;20057;-77
2022/08/18 05:00:29;;;;;;;1.73;0.88;;;;;;;24.22;74.91;100264.25;5031881;28;20060;-77
2022/08/18 05:02:57;;;;;;;1.15;0.75;;;;;;;24.30;74.63;100293.13;5030864;28;20491;-78
2022/08/18 05:05:26;;;;;;;2.58;1.05;;;;;;;23.88;76.25;100292.16;5030864;28;20053;-78
2022/08/18 05:07:55;;;;;;;2.92;0.90;;;;;;;23.72;78.00;100297.94;5031813;28;20045;-77
2022/08/18 05:10:23;;;;;;;1.75;0.90;;;;;;;23.61;77.58;100298.56;5031912;28;20049;-78
2022/08/18 05:12:51;;;;;;;2.72;0.90;;;;;;;23.87;77.90;100296.97;5032133;28;20038;-78
2022/08/18 05:15:19;;;;;;;2.38;1.33;;;;;;;23.86;77.42;100281.34;5030261;28;20041;-78
2022/08/18 05:17:47;;;;;;;0.65;0.60;;;;;;;23.77;77.06;100292.03;5032002;28;20033;-78
2022/08/18 05:20:18;;;;;;;1.98;1.17;;;;;;;23.75;78.62;100288.78;5030682;28;20049;-78
2022/08/18 05:22:46;;;;;;;3.65;1.42;;;;;;;24.02;76.86;100302.72;5033779;28;20049;-78
2022/08/18 05:25:14;;;;;;;1.50;1.00;;;;;;;24.23;76.67;100309.78;5035969;28;20507;-78
2022/08/18 05:27:43;;;;;;;1.30;1.10;;;;;;;24.29;76.12;100309.06;5022128;28;20488;-78
2022/08/18 05:30:13;;;;;;;1.95;1.15;;;;;;;24.48;75.59;100300.91;5035956;28;20045;-78
2022/08/18 05:32:45;;;;;;;3.25;1.05;;;;;;;24.49;75.68;100310.91;5035865;28;20052;-78
2022/08/18 05:35:25;;;;;;;1.75;1.20;;;;;;;24.70;75.27;100319.50;5036028;28;20396;-78
2022/08/18 05:38:31;;;;;;;1.98;1.00;;;;;;;24.91;75.36;100329.34;5035886;28;20507;-78
2022/08/18 05:41:12;;;;;;;2.63;1.42;;;;;;;25.05;75.33;100327.84;5066881;28;20056;-78
2022/08/18 05:43:45;;;;;;;3.53;1.17;;;;;;;25.15;75.03;100321.56;5035899;28;20503;-78
2022/08/18 05:46:33;;;;;;;1.63;1.50;;;;;;;25.19;74.97;100321.59;5035639;28;20053;-77
2022/08/18 05:49:01;;;;;;;1.92;1.27;;;;;;;25.48;73.90;100319.78;5045365;28;20064;-78
2022/08/18 05:51:43;;;;;;;0.90;0.90;;;;;;;25.44;73.30;100333.00;5055205;28;20041;-78
2022/08/18 05:57:06;;;;;;;2.22;1.23;;;;;;;25.60;71.99;100377.56;5054134;28;20056;-78
2022/08/18 05:59:38;;;;;;;3.47;1.40;;;;;;;25.43;73.30;100383.78;5055297;28;20514;-78
2022/08/18 06:02:21;;;;;;;2.58;1.17;;;;;;;25.43;72.54;100381.81;5053882;28;20045;-78
2022/08/18 06:04:57;;;;;;;3.27;1.20;;;;;;;25.34;73.16;100407.34;5053512;28;20053;-77
2022/08/18 06:07:57;;;;;;;2.33;1.33;;;;;;;25.08;75.52;100408.28;5055005;28;20063;-77
2022/08/18 06:10:26;;;;;;;2.80;1.40;;;;;;;25.40;73.90;100395.78;5053250;28;20055;-77
2022/08/18 06:12:58;;;;;;;1.73;1.20;;;;;;;25.18;73.84;100395.56;5054919;28;20057;-78
2022/08/18 06:15:59;;;;;;;2.05;1.50;;;;;;;25.46;73.02;100403.41;5055058;28;20056;-77
2022/08/18 06:19:04;;;;;;;2.80;1.17;;;;;;;25.35;73.82;100392.13;5054905;28;20044;-77
2022/08/18 06:21:41;;;;;;;;;;;;;;;25.66;72.55;100388.41;5055179;28;20052;-77
2022/08/18 06:24:34;;;;;;;2.53;1.30;;;;;;;25.40;74.27;100409.78;5054886;28;19932;-77
2022/08/18 06:27:21;;;;;;;1.20;1.10;;;;;;;25.65;74.86;100423.22;5053444;28;20052;-77
2022/08/18 06:30:14;;;;;;;1.83;1.27;;;;;;;25.94;73.63;100432.63;5049392;28;20037;-77
2022/08/18 06:33:00;;;;;;;1.52;1.15;;;;;;;26.16;72.66;100432.78;5034718;28;20045;-77
2022/08/18 06:35:46;;;;;;;3.25;1.10;;;;;;;26.12;72.16;100435.56;5034174;28;20045;-77
2022/08/18 06:38:37;;;;;;;1.48;1.38;;;;;;;26.34;71.53;100440.53;5033814;28;20050;-77
2022/08/18 06:41:08;;;;;;;1.33;1.20;;;;;;;26.28;71.19;100438.09;5033313;28;20049;-78
2022/08/18 06:44:02;;;;;;;3.40;1.60;;;;;;;26.25;71.05;100419.22;5034635;28;20484;-76
2022/08/18 06:46:58;;;;;;;1.83;1.33;;;;;;;26.18;70.18;100410.75;5034214;28;20045;-77
2022/08/18 06:49:35;;;;;;;2.28;1.15;;;;;;;26.00;70.72;100430.28;5034534;28;20057;-76
2022/08/18 06:52:25;;;;;;;1.90;0.90;;;;;;;25.66;71.88;100431.22;5025964;28;20056;-77
2022/08/18 06:54:55;;;;;;;1.63;1.23;;;;;;;25.61;73.72;100423.19;5042097;28;20041;-77
2022/08/18 06:57:36;;;;;;;1.45;1.17;;;;;;;25.58;73.30;100407.16;5042045;28;20045;-77
2022/08/18 07:00:22;;;;;;;0.88;0.88;;;;;;;25.58;73.35;100398.75;5041336;28;20042;-77
2022/08/18 07:03:06;;;;;;;1.60;1.10;;;;;;;25.52;75.03;100408.66;5040444;28;20555;-77
2022/08/18 07:05:36;;;;;;;2.50;1.20;;;;;;;25.74;73.13;100432.09;5039994;28;20053;-77
2022/08/18 07:08:13;;;;;;;1.20;1.00;;;;;;;25.84;72.42;100481.00;5039058;28;20778;-77
2022/08/18 07:10:50;;;;;;;1.40;1.10;;;;;;;25.93;71.41;100489.91;5033936;28;20057;-77
2022/08/18 07:13:25;;;;;;;3.15;1.30;;;;;;;25.34;72.61;100420.53;5034190;28;20040;-77
2022/08/18 07:16:13;;;;;;;4.95;2.28;;;;;;;25.40;75.32;100402.16;5042265;28;20041;-76
2022/08/18 07:18:46;;;;;;;7.28;2.78;;;;;;;25.65;73.75;100522.06;5031044;28;20068;-76
2022/08/18 07:21:34;;;;;;;4.90;2.35;;;;;;;24.99;77.44;100696.06;5086200;28;20044;-77
2022/08/18 07:24:24;;;;;;;5.20;2.42;;;;;;;24.74;78.91;100662.91;5043949;28;20053;-77
2022/08/18 07:27:10;;;;;;;5.57;3.47;;;;;;;25.02;78.53;100628.94;5039309;28;20057;-77
2022/08/18 07:29:58;;;;;;;6.18;3.65;;;;;;;25.29;76.53;100633.69;5047972;28;20049;-77
2022/08/18 07:32:50;;;;;;;7.53;3.92;;;;;;;25.20;76.95;100600.38;5033284;28;20041;-77
2022/08/18 07:35:24;;;;;;;7.20;4.65;;;;;;;25.08;79.05;100590.25;5026376;28;20061;-77
2022/08/18 07:38:01;;;;;;;;;;;;;;;24.96;79.79;100586.50;5031403;28;20408;-77
2022/08/18 07:41:01;;;;;;;6.72;4.78;;;;;;;25.09;78.99;100589.06;5033298;28;19921;-77
2022/08/18 07:43:52;;;;;;;7.10;4.53;;;;;;;25.01;78.96;100578.94;5013131;28;20504;-77
2022/08/18 07:46:49;;;;;;;7.35;4.55;;;;;;;25.01;79.70;100548.13;5006053;28;20048;-77
2022/08/18 07:49:21;;;;;;;11.30;5.47;;;;;;;24.96;79.17;100502.53;5031295;28;20060;-77
2022/08/18 07:52:13;;;;;;;9.70;5.25;;;;;;;24.90;80.27;100420.09;5032389;28;20373;-77
2022/08/18 07:55:28;;;;;;;10.80;5.88;;;;;;;25.02;79.67;100365.81;5032159;28;20053;-77
2022/08/18 07:58:18;;;;;;;10.57;4.60;;;;;;;24.74;80.18;100308.38;5032618;28;20064;-77
2022/08/18 08:01:01;;;;;;;8.77;4.22;;;;;;;24.75;79.97;100268.00;5031709;28;20037;-77
2022/08/18 08:03:40;;;;;;;4.28;3.17;;;;;;;24.68;78.33;100204.38;5031043;28;20048;-77
2022/08/18 08:06:17;;;;;;;4.88;2.60;;;;;;;24.75;77.50;100230.81;5030933;28;20049;-77
2022/08/18 08:09:00;;;;;;;3.08;1.67;;;;;;;24.73;76.33;100277.97;5032459;28;20046;-77
2022/08/18 08:12:15;;;;;;;2.72;1.25;;;;;;;24.27;76.68;100285.47;5031334;28;20046;-77
2022/08/18 08:14:46;;;;;;;3.70;1.25;;;;;;;24.16;77.42;100230.25;5043855;28;20072;-77
2022/08/18 08:17:22;;;;;;;3.05;1.35;;;;;;;24.36;76.68;100196.50;5032388;28;20048;-77
2022/08/18 08:19:50;;;;;;;3.15;1.52;;;;;;;24.26;75.65;100183.22;5032480;28;20406;-77
2022/08/18 08:22:57;;;;;;;3.80;1.27;;;;;;;24.25;76.03;100196.38;5031172;28;20049;-76
2022/08/18 08:25:43;;;;;;;2.58;1.70;;;;;;;24.35;74.92;100182.91;5030884;28;20408;-76
2022/08/18 08:28:58;;;;;;;3.70;1.23;;;;;;;24.08;76.61;100167.06;5032583;28;20079;-77
2022/08/18 08:31:46;;;;;;;1.02;0.82;;;;;;;24.15;75.42;100185.91;5032357;28;20041;-77
2022/08/18 08:34:36;;;;;;;2.25;1.40;;;;;;;24.28;74.03;100211.59;5031781;28;20049;-77
2022/08/18 08:37:08;;;;;;;1.05;0.90;;;;;;;23.55;76.22;100213.50;5021812;28;20480;-77
2022/08/18 08:39:54;;;;;;;1.70;0.70;;;;;;;24.11;75.61;100207.44;5032150;28;20064;-77
2022/08/18 08:42:46;;;;;;;1.40;0.90;;;;;;;24.28;75.49;100198.44;5064206;28;20056;-77
2022/08/18 08:45:20;;;;;;;1.60;0.93;;;;;;;24.21;74.80;100209.53;5031992;28;20487;-78
2022/08/18 08:48:02;;;;;;;1.60;0.77;;;;;;;24.18;73.75;100234.66;5031932;28;20061;-78
2022/08/18 08:50:51;;;;;;;0.40;0.40;;;;;;;24.33;72.18;100236.41;5031877;28;20041;-78
2022/08/18 08:53:37;;;;;;;1.17;0.80;;;;;;;24.49;71.34;100229.78;5031904;28;20054;-77
2022/08/18 08:56:15;;;;;;;1.10;0.60;;;;;;;24.87;70.73;100224.97;5032199;28;20476;-78
2022/08/18 08:59:03;;;;;;;0.60;0.28;;;;;;;25.31;69.60;100206.47;5031747;28;20052;-78
2022/08/18 09:02:04;;;;;;;2.55;0.95;;;;;;;25.22;68.84;100178.81;5030569;28;20042;-78
2022/08/18 09:04:57;;;;;;;1.77;0.50;;;;;;;25.75;68.35;100151.47;5030968;28;20072;-77
2022/08/18 09:07:46;;;;;;;1.17;0.40;;;;;;;25.95;67.44;100137.09;5030616;28;20049;-78
2022/08/18 09:10:43;;;;;;;1.38;0.80;;;;;;;26.02;67.68;100150.34;5031741;28;20132;-78
2022/08/18 09:13:52;;;;;;;1.88;0.82;;;;;;;25.88;67.73;100134.28;5024353;28;20052;-78
2022/08/18 09:17:16;;;;;;;2.17;0.68;;;;;;;25.69;67.08;100141.84;5031340;28;20062;-78
2022/08/18 09:20:11;;;;;;;0.63;0.43;;;;;;;25.77;68.01;100179.91;5028737;28;20041;-78
2022/08/18 09:22:57;;;;;;;0.50;0.40;;;;;;;25.74;68.83;100174.28;5031544;28;20531;-78
2022/08/18 09:25:48;;;;;;;0.50;0.50;;;;;;;25.65;68.54;100183.06;5031616;28;20053;-78
2022/08/18 09:28:19;;;;;;;1.85;1.08;;;;;;;25.45;69.06;100216.94;5030503;28;20041;-78
2022/08/18 09:31:13;;;;;;;1.60;0.40;;;;;;;25.45;69.04;100210.53;5031545;28;20046;-78
2022/08/18 09:33:52;;;;;;;0.40;0.30;;;;;;;25.45;69.27;100194.53;5027484;28;20042;-78
2022/08/18 09:36:37;;;;;;;0.40;0.40;;;;;;;25.49;69.45;100203.78;5030069;28;20516;-77
2022/08/18 09:42:48;;;;;;;1.88;0.73;;;;;;;25.17;69.96;100187.56;5030187;28;20053;-77
2022/08/18 09:46:03;;;;;;;0.67;0.50;;;;;;;25.05;70.84;100202.72;5031299;28;20041;-78
2022/08/18 09:48:35;;;;;;;0.60;0.60;;;;;;;24.80;73.04;100214.50;5031005;28;20049;-77
2022/08/18 09:51:35;;;;;;;1.63;0.88;;;;;;;24.59;74.28;100231.91;5031223;28;20037;-77
2022/08/18 09:54:13;;;;;;;1.23;0.70;;;;;;;24.70;74.10;100232.78;5031277;28;20075;-77
2022/08/18 09:56:52;;;;;;;0.90;0.40;;;;;;;24.54;74.85;100212.66;5029941;28;20045;-77
2022/08/18 09:59:31;;;;;;;2.30;0.40;;;;;;;24.36;76.16;100249.66;5031558;28;20519;-78
2022/08/18 10:02:26;;;;;;;0.77;0.40;;;;;;;24.00;78.35;100265.97;5031416;28;20045;-77
2022/08/18 10:05:14;;;;;;;0.75;0.52;;;;;;;23.33;81.25;100218.00;5031326;28;20042;-79
2022/08/18 10:08:04;;;;;;;0.60;0.52;;;;;;;23.65;81.21;100181.31;5031183;28;20056;-78
2022/08/18 10:10:48;;;;;;;2.50;0.70;;;;;;;23.67;81.71;100184.56;5033914;28;20048;-77
2022/08/18 10:13:46;;;;;;;2.28;0.63;;;;;;;23.66;81.23;100233.19;5033657;28;20373;-77
2022/08/18 10:16:48;;;;;;;0.80;0.40;;;;;;;23.75;80.49;100224.53;5033877;28;20030;-78
2022/08/18 10:20:01;;;;;;;1.08;0.60;;;;;;;24.00;79.67;100274.34;5033669;28;20049;-77
2022/08/18 10:22:37;;;;;;;0.47;0.45;;;;;;;24.49;77.43;100313.69;5034669;28;20041;-78
2022/08/18 10:25:10;;;;;;;1.90;0.43;;;;;;;24.57;74.04;100396.47;5034771;28;20046;-78
2022/08/18 10:27:56;;;;;;;2.65;0.80;;;;;;;24.39;77.26;100561.28;5034531;28;20069;-77
2022/08/18 10:30:34;;;;;;;1.63;0.85;;;;;;;24.04;80.96;100551.88;5034799;28;20072;-79
2022/08/18 10:33:59;;;;;;;2.38;0.55;;;;;;;23.51;81.48;100383.00;5034386;28;20503;-80
2022/08/18 10:36:49;;;;;;;0.20;0.20;;;;;;;23.37;77.76;100388.34;5034223;28;20041;-80
2022/08/18 10:39:21;;;;;;;0.98;0.30;;;;;;;23.62;77.84;100385.97;5034406;28;20049;-79
2022/08/18 10:41:55;;;;;;;2.95;0.40;;;;;;;23.91;78.32;100361.28;5027885;28;20054;-80
2022/08/18 10:44:26;;;;;;;0.73;0.30;;;;;;;23.87;78.53;100344.44;5027600;28;20045;-80
2022/08/18 10:46:59;;;;;;;0.90;0.20;;;;;;;23.91;78.80;100301.78;5052038;28;20057;-80
2022/08/18 10:49:31;;;;;;;2.08;0.40;;;;;;;24.05;79.16;100287.19;5034101;28;20055;-79
2022/08/18 10:52:09;;;;;;;1.45;0.38;;;;;;;24.13;79.78;100264.56;5034075;28;20049;-79
2022/08/18 10:54:58;;;;;;;2.15;0.50;;;;;;;24.66;77.26;100248.75;5034188;28;20396;-79
2022/08/18 10:57:56;;;;;;;1.85;0.77;;;;;;;24.61;77.65;100249.09;5032163;28;20056;-79
2022/08/18 11:00:38;;;;;;;0.80;0.40;;;;;;;24.58;77.72;100249.84;5033880;28;20041;-80
2022/08/18 11:03:31;;;;;;;0.82;0.43;;;;;;;24.59;77.24;100231.91;5033967;28;20045;-80
2022/08/18 11:06:22;;;;;;;2.97;0.60;;;;;;;24.62;78.64;100241.47;5033433;28;20045;-78
2022/08/18 11:08:56;;;;;;;1.10;0.95;;;;;;;24.55;79.43;100247.84;5033479;28;20057;-79
2022/08/18 11:11:32;;;;;;;2.72;0.80;;;;;;;24.47;80.29;100244.16;5041869;28;20049;-80
2022/08/18 11:14:43;;;;;;;1.08;0.30;;;;;;;24.75;79.88;100248.41;5032864;28;20052;-80
2022/08/18 11:17:40;;;;;;;1.15;0.77;;;;;;;24.70;79.64;100263.53;5030975;28;20045;-79
2022/08/18 11:20:13;;;;;;;0.95;0.40;;;;;;;24.88;78.48;100237.75;5060560;28;20525;-79
2022/08/18 11:22:56;;;;;;;1.58;0.52;;;;;;;24.57;80.15;100211.88;5020849;28;20507;-79
2022/08/18 11:25:29;;;;;;;1.55;0.40;;;;;;;24.75;80.25;100191.66;5032589;28;20042;-79
2022/08/18 11:27:58;;;;;;;1.23;0.50;;;;;;;24.76;80.55;100188.47;5032759;28;20050;-79
2022/08/18 11:30:32;;;;;;;1.55;0.60;;;;;;;24.79;80.68;100164.50;5039530;28;20042;-79
2022/08/18 11:33:03;;;;;;;2.60;0.60;;;;;;;24.99;79.53;100147.47;5042993;28;20045;-79
2022/08/18 11:35:43;;;;;;;0.57;0.50;;;;;;;25.04;80.29;100127.53;5037108;28;20396;-80
2022/08/18 11:38:12;;;;;;;2.83;0.65;;;;;;;25.13;78.04;100034.78;5051571;28;20082;-79
2022/08/18 11:41:18;;;;;;;0.50;0.50;;;;;;;25.61;77.35;99919.72;5051775;28;20041;-79
2022/08/18 11:43:47;;;;;;;1.88;0.50;;;;;;;25.65;76.77;99928.09;5037131;28;20045;-78
2022/08/18 11:46:22;;;;;;;2.15;0.43;;;;;;;25.51;78.17;99968.06;5026162;28;20041;-78
2022/08/18 11:48:59;;;;;;;1.38;0.90;;;;;;;25.83;77.58;100047.81;5034136;28;20049;-79
2022/08/18 11:51:30;;;;;;;2.13;0.88;;;;;;;25.65;78.19;100053.41;5026201;28;20048;-79
2022/08/18 11:54:20;;;;;;;1.02;0.70;;;;;;;25.77;77.12;100084.63;5053236;28;20056;-79
2022/08/18 11:56:51;;;;;;;1.23;0.77;;;;;;;25.66;77.82;100097.81;5053265;28;20056;-79
2022/08/18 11:59:25;;;;;;;1.63;0.55;;;;;;;25.68;81.22;100089.00;5053170;28;20049;-79
2022/08/18 12:02:18;;;;;;;2.67;0.77;;;;;;;25.69;79.28;100088.63;5053088;28;20037;-79
2022/08/18 12:04:53;;;;;;;0.93;0.82;;;;;;;26.05;77.59;100093.47;5051097;28;20475;-79
2022/08/18 12:07:32;;;;;;;1.13;0.98;;;;;;;25.99;77.82;100093.06;5052610;28;20049;-78
2022/08/18 12:10:27;;;;;;;1.80;1.20;;;;;;;25.98;77.08;100130.72;5051260;28;20037;-79
2022/08/18 12:13:00;;;;;;;4.43;1.08;;;;;;;25.93;76.36;100136.72;5038437;28;20042;-82
2022/08/18 12:15:32;;;;;;;1.42;1.33;;;;;;;26.34;74.10;100148.81;5051472;28;20060;-83
2022/08/18 12:18:16;;;;;;;1.40;1.20;;;;;;;26.56;73.93;100158.03;5028783;28;20053;-83
2022/08/18 12:21:00;;;;;;;1.63;1.38;;;;;;;26.59;74.42;100164.88;5038020;28;20045;-83
2022/08/18 12:23:34;;;;;;;2.15;1.52;;;;;;;26.81;72.52;100172.06;5043301;28;20121;-84
2022/08/18 12:26:12;;;;;;;3.38;1.70;;;;;;;26.93;72.54;100186.94;5047682;28;20037;-84
2022/08/18 12:29:00;;;;;;;3.75;1.40;;;;;;;27.26;70.27;100218.56;5045140;28;20044;-83
2022/08/18 12:31:29;;;;;;;2.17;1.48;;;;;;;27.00;69.79;100229.03;5030707;28;20034;-83